createdAt,value
2023-01-02T00:00:54.929Z,14.19
2023-01-02T00:03:21.629Z,14.29
2023-01-02T00:05:49.481Z,14.34
2023-01-02T00:08:19.524Z,14.19
2023-01-02T00:10:45.971Z,14.14
2023-01-02T00:13:12.378Z,14.19
2023-01-02T00:15:39.055Z,14.27
2023-01-02T00:18:05.869Z,14.17
2023-01-02T00:20:33.568Z,14.16
2023-01-02T00:23:00.069Z,14.11
2023-01-02T00:25:26.528Z,14.15
2023-01-02T00:27:52.929Z,14.26
2023-01-02T00:30:19.294Z,14.32
2023-01-02T00:32:51.243Z,14.12
2023-01-02T00:35:17.646Z,14.16
2023-01-02T00:37:45.211Z,14.04
2023-01-02T00:40:14.516Z,14.08
2023-01-02T00:42:41.932Z,14.06
2023-01-02T00:45:10.694Z,14.07
2023-01-02T00:47:37.137Z,14.06
2023-01-02T00:50:04.777Z,14.06
2023-01-02T00:52:31.229Z,14.21
2023-01-02T00:54:57.609Z,14.07
2023-01-02T00:57:24.132Z,14.09
2023-01-02T00:59:55.894Z,14.14
2023-01-02T01:02:22.514Z,14.07
2023-01-02T01:04:50.451Z,14.09
2023-01-02T01:07:17.291Z,13.95
2023-01-02T01:09:43.736Z,14.02
2023-01-02T01:12:10.250Z,14.15
2023-01-02T01:14:36.684Z,14.20
2023-01-02T01:17:03.120Z,14.05
2023-01-02T01:19:31.239Z,14.13
2023-01-02T01:21:57.679Z,14.22
2023-01-02T01:24:25.181Z,14.11
2023-01-02T01:26:51.679Z,14.14
2023-01-02T01:29:22.806Z,14.17
2023-01-02T01:31:49.273Z,14.05
2023-01-02T01:34:15.796Z,14.10
2023-01-02T01:36:42.159Z,13.98
2023-01-02T01:39:08.646Z,13.96
2023-01-02T01:41:37.946Z,14.03
2023-01-02T01:44:42.741Z,14.05
2023-01-02T01:47:36.781Z,14.03
2023-01-02T01:50:09.135Z,14.08
2023-01-02T01:52:41.987Z,14.02
2023-01-02T01:55:21.883Z,13.99
2023-01-02T01:57:54.001Z,13.91
2023-01-02T02:00:21.076Z,13.86
2023-01-02T02:02:51.541Z,13.83
2023-01-02T02:05:23.599Z,13.82
2023-01-02T02:08:35.120Z,13.78
2023-01-02T02:11:02.577Z,13.96
2023-01-02T02:13:31.581Z,13.83
2023-01-02T02:16:07.810Z,13.93
2023-01-02T02:18:45.715Z,13.84
2023-01-02T02:21:26.041Z,13.80
2023-01-02T02:24:43.888Z,13.80
2023-01-02T02:27:22.537Z,13.85
2023-01-02T02:30:14.294Z,13.81
2023-01-02T02:33:16.496Z,13.79
2023-01-02T02:36:00.818Z,13.79
2023-01-02T02:38:54.653Z,13.69
2023-01-02T02:41:27.109Z,13.71
2023-01-02T02:44:03.848Z,13.80
2023-01-02T02:46:42.189Z,13.65
2023-01-02T02:49:28.025Z,13.67
2023-01-02T02:52:16.527Z,13.63
2023-01-02T02:55:05.385Z,13.71
2023-01-02T02:57:33.279Z,13.56
2023-01-02T03:00:00.156Z,13.62
2023-01-02T03:02:26.989Z,13.61
2023-01-02T03:04:58.730Z,13.58
2023-01-02T03:07:35.732Z,13.47
2023-01-02T03:10:23.685Z,13.45
2023-01-02T03:13:03.015Z,13.41
2023-01-02T03:15:52.581Z,13.42
2023-01-02T03:18:41.297Z,13.34
2023-01-02T03:21:17.528Z,13.33
2023-01-02T03:23:46.608Z,13.42
2023-01-02T03:26:16.869Z,13.43
2023-01-02T03:28:47.036Z,13.41
2023-01-02T03:31:18.801Z,13.37
2023-01-02T03:34:06.643Z,13.43
2023-01-02T03:36:34.903Z,13.36
2023-01-02T03:39:18.099Z,13.38
2023-01-02T03:41:53.348Z,13.43
2023-01-02T03:44:24.257Z,13.40
2023-01-02T03:47:02.695Z,13.33
2023-01-02T03:49:33.489Z,13.36
2023-01-02T03:52:00.431Z,13.29
2023-01-02T03:54:29.250Z,13.30
2023-01-02T03:57:34.564Z,13.37
2023-01-02T04:00:07.646Z,13.43
2023-01-02T04:02:57.139Z,13.40
2023-01-02T04:05:54.946Z,13.55
2023-01-02T04:08:39.603Z,13.45
2023-01-02T04:11:07.757Z,13.43
2023-01-02T04:13:42.606Z,13.49
2023-01-02T04:16:13.342Z,13.45
2023-01-02T04:18:46.902Z,13.39
2023-01-02T04:21:21.282Z,13.35
2023-01-02T04:23:56.735Z,13.30
2023-01-02T04:26:35.639Z,13.42
2023-01-02T04:29:02.407Z,13.43
2023-01-02T04:31:51.216Z,13.40
2023-01-02T04:34:19.753Z,13.53
2023-01-02T04:36:46.416Z,13.38
2023-01-02T04:39:13.289Z,13.55
2023-01-02T04:41:40.389Z,13.46
2023-01-02T04:44:06.864Z,13.42
2023-01-02T04:46:33.323Z,13.49
2023-01-02T04:48:59.727Z,13.48
2023-01-02T04:51:30.133Z,13.49
2023-01-02T04:53:56.531Z,13.29
2023-01-02T04:56:23.554Z,13.29
2023-01-02T04:58:50.518Z,13.49
2023-01-02T05:01:19.470Z,13.25
2023-01-02T05:03:48.713Z,13.37
2023-01-02T05:06:15.985Z,13.24
2023-01-02T05:08:42.580Z,13.30
2023-01-02T05:11:19.460Z,13.36
2023-01-02T05:13:46.343Z,13.27
2023-01-02T05:16:13.193Z,13.23
2023-01-02T05:18:41.249Z,13.22
2023-01-02T05:21:33.329Z,13.22
2023-01-02T05:24:01.992Z,13.14
2023-01-02T05:26:31.135Z,13.03
2023-01-02T05:28:57.629Z,13.29
2023-01-02T05:31:24.258Z,13.29
2023-01-02T05:33:55.113Z,13.30
2023-01-02T05:36:22.788Z,13.31
2023-01-02T05:38:49.925Z,13.15
2023-01-02T05:41:16.757Z,13.06
2023-01-02T05:43:43.210Z,13.05
2023-01-02T05:46:20.275Z,13.08
2023-01-02T05:48:47.965Z,13.11
2023-01-02T05:51:16.927Z,13.16
2023-01-02T05:53:44.086Z,13.32
2023-01-02T05:56:13.748Z,13.42
2023-01-02T05:58:42.605Z,13.33
2023-01-02T06:01:11.859Z,13.37
2023-01-02T06:03:41.999Z,13.38
2023-01-02T06:06:10.394Z,13.34
2023-01-02T06:08:38.936Z,13.56
2023-01-02T06:11:06.552Z,13.27
2023-01-02T06:13:34.554Z,13.23
2023-01-02T06:16:02.373Z,13.29
2023-01-02T06:18:31.207Z,13.16
2023-01-02T06:21:02.596Z,13.20
2023-01-02T06:23:29.016Z,13.25
2023-01-02T06:25:55.428Z,13.16
2023-01-02T06:28:23.178Z,13.21
2023-01-02T06:30:50.221Z,13.16
2023-01-02T06:33:16.632Z,13.27
2023-01-02T06:35:45.757Z,13.22
2023-01-02T06:38:12.323Z,13.36
2023-01-02T06:40:38.723Z,13.28
2023-01-02T06:43:05.386Z,13.34
2023-01-02T06:45:31.867Z,13.35
2023-01-02T06:48:00.382Z,13.38
2023-01-02T06:50:32.966Z,13.54
2023-01-02T06:53:01.402Z,13.61
2023-01-02T06:55:29.104Z,13.55
2023-01-02T06:57:56.393Z,13.45
2023-01-02T07:00:22.835Z,13.67
2023-01-02T07:02:49.353Z,13.64
2023-01-02T07:05:21.134Z,13.74
2023-01-02T07:07:50.751Z,13.95
2023-01-02T07:10:17.377Z,13.94
2023-01-02T07:12:43.760Z,13.92
2023-01-02T07:15:11.153Z,13.93
2023-01-02T07:17:37.747Z,13.88
2023-01-02T07:20:04.488Z,13.77
2023-01-02T07:22:30.875Z,13.69
2023-01-02T07:25:02.123Z,13.77
2023-01-02T07:27:29.982Z,13.90
2023-01-02T07:29:56.626Z,13.71
2023-01-02T07:32:27.309Z,13.72
2023-01-02T07:34:54.473Z,13.70
2023-01-02T07:37:21.016Z,13.82
2023-01-02T07:39:47.405Z,13.90
2023-01-02T07:42:13.898Z,13.94
2023-01-02T07:44:40.354Z,13.99
2023-01-02T07:47:06.788Z,14.15
2023-01-02T07:49:33.207Z,14.01
2023-01-02T07:52:05.419Z,14.04
2023-01-02T07:54:31.838Z,14.02
2023-01-02T07:56:58.768Z,14.10
2023-01-02T07:59:25.284Z,14.19
2023-01-02T08:01:51.805Z,14.13
2023-01-02T08:04:18.452Z,14.09
2023-01-02T08:06:44.862Z,14.10
2023-01-02T08:09:11.299Z,14.17
2023-01-02T08:11:37.725Z,14.16
2023-01-02T08:14:04.138Z,14.16
2023-01-02T08:16:31.104Z,14.21
2023-01-02T08:18:57.541Z,14.19
2023-01-02T08:21:25.306Z,14.29
2023-01-02T08:23:52.123Z,14.35
2023-01-02T08:26:18.747Z,14.36
2023-01-02T08:28:45.734Z,14.34
2023-01-02T08:31:18.771Z,14.45
2023-01-02T08:33:48.454Z,14.45
2023-01-02T08:36:15.019Z,14.39
2023-01-02T08:38:41.647Z,14.40
2023-01-02T08:41:08.946Z,14.42
2023-01-02T08:43:37.482Z,14.48
2023-01-02T08:46:11.122Z,14.86
2023-01-02T08:48:37.644Z,15.22
2023-01-02T08:51:04.949Z,15.47
2023-01-02T08:53:31.374Z,15.80
2023-01-02T08:56:24.256Z,15.78
2023-01-02T08:58:52.761Z,15.61
2023-01-02T09:01:19.996Z,15.54
2023-01-02T09:03:46.610Z,15.48
2023-01-02T09:06:18.051Z,15.48
2023-01-02T09:08:47.903Z,15.29
2023-01-02T09:11:17.616Z,15.32
2023-01-02T09:13:44.804Z,15.27
2023-01-02T09:16:11.888Z,15.29
2023-01-02T09:18:39.181Z,15.29
2023-01-02T09:21:06.233Z,15.26
2023-01-02T09:23:33.559Z,15.28
2023-01-02T09:26:01.471Z,15.22
2023-01-02T09:28:30.378Z,15.19
2023-01-02T09:30:56.960Z,15.23
2023-01-02T09:33:23.565Z,15.14
2023-01-02T09:35:49.977Z,15.00
2023-01-02T09:38:16.572Z,15.11
2023-01-02T09:40:51.237Z,15.02
2023-01-02T09:43:28.023Z,15.00
2023-01-02T09:45:58.885Z,15.02
2023-01-02T09:48:29.403Z,15.02
2023-01-02T09:50:55.840Z,15.03
2023-01-02T09:53:22.392Z,15.04
2023-01-02T09:56:09.469Z,15.06
2023-01-02T09:58:40.458Z,15.20
2023-01-02T10:01:16.713Z,15.11
2023-01-02T10:03:59.985Z,15.13
2023-01-02T10:06:47.272Z,15.10
2023-01-02T10:09:40.399Z,15.05
2023-01-02T10:12:26.564Z,15.17
2023-01-02T10:14:57.225Z,15.11
2023-01-02T10:17:25.984Z,15.06
2023-01-02T10:19:55.784Z,14.95
2023-01-02T10:22:38.207Z,14.96
2023-01-02T10:25:13.943Z,14.99
2023-01-02T10:27:46.804Z,14.99
2023-01-02T10:30:25.523Z,15.06
2023-01-02T10:33:18.550Z,15.06
2023-01-02T10:35:50.604Z,15.03
2023-01-02T10:38:20.035Z,15.02
2023-01-02T10:40:49.190Z,14.99
2023-01-02T10:43:17.241Z,15.07
2023-01-02T10:45:43.908Z,15.01
2023-01-02T10:48:11.187Z,15.02
2023-01-02T10:50:51.273Z,14.98
2023-01-02T10:53:28.595Z,14.95
2023-01-02T10:55:55.015Z,14.95
2023-01-02T10:58:23.308Z,14.88
2023-01-02T11:00:52.945Z,14.91
2023-01-02T11:03:25.374Z,14.96
2023-01-02T11:06:02.097Z,14.97
2023-01-02T11:08:39.409Z,14.91
2023-01-02T11:11:17.640Z,14.88
2023-01-02T11:13:53.986Z,14.83
2023-01-02T11:16:22.822Z,14.91
2023-01-02T11:18:54.307Z,14.94
2023-01-02T11:21:33.068Z,14.95
2023-01-02T11:24:06.052Z,14.91
2023-01-02T11:26:38.316Z,14.88
2023-01-02T11:29:32.413Z,14.76
2023-01-02T11:32:02.241Z,14.78
2023-01-02T11:34:43.088Z,14.64
2023-01-02T11:37:12.362Z,14.54
2023-01-02T11:39:40.899Z,14.48
2023-01-02T11:42:39.992Z,14.43
2023-01-02T11:45:13.531Z,14.34
2023-01-02T11:47:55.219Z,14.32
2023-01-02T11:50:30.992Z,14.28
2023-01-02T11:53:12.649Z,14.18
2023-01-02T11:55:48.745Z,14.03
2023-01-02T11:58:30.470Z,13.95
2023-01-02T12:01:13.473Z,13.89
2023-01-02T12:03:40.476Z,13.96
2023-01-02T12:06:15.653Z,13.90
2023-01-02T12:09:39.571Z,13.70
2023-01-02T12:12:36.495Z,13.70
2023-01-02T12:15:50.544Z,13.72
2023-01-02T12:18:49.230Z,13.74
2023-01-02T12:21:31.753Z,13.72
2023-01-02T12:24:16.821Z,13.74
2023-01-02T12:26:59.178Z,13.65
2023-01-02T12:29:47.601Z,13.63
2023-01-02T12:32:41.183Z,13.66
2023-01-02T12:35:48.159Z,13.65
2023-01-02T12:38:35.211Z,13.50
2023-01-02T12:41:13.954Z,13.41
2023-01-02T12:44:08.192Z,13.42
2023-01-02T12:46:57.752Z,13.34
2023-01-02T12:49:50.342Z,13.34
2023-01-02T12:52:42.405Z,13.37
2023-01-02T12:55:39.663Z,13.36
2023-01-02T12:58:16.722Z,13.34
2023-01-02T13:01:08.642Z,13.27
2023-01-02T13:03:56.664Z,13.38
2023-01-02T13:06:43.619Z,13.35
2023-01-02T13:09:54.247Z,13.27
2023-01-02T13:12:26.835Z,13.29
2023-01-02T13:15:00.531Z,13.20
2023-01-02T13:17:46.306Z,13.15
2023-01-02T13:20:43.864Z,13.05
2023-01-02T13:23:35.521Z,13.09
2023-01-02T13:26:11.636Z,13.13
2023-01-02T13:28:49.501Z,13.12
2023-01-02T13:34:31.087Z,13.01
2023-01-02T13:37:05.810Z,13.12
2023-01-02T13:39:40.987Z,13.08
2023-01-02T13:42:30.189Z,12.93
2023-01-02T13:44:59.848Z,12.93
2023-01-02T13:47:34.453Z,12.90
2023-01-02T13:50:30.290Z,12.91
2023-01-02T13:53:11.268Z,12.85
2023-01-02T13:55:42.812Z,12.78
2023-01-02T13:58:12.525Z,12.70
2023-01-02T14:00:42.382Z,12.70
2023-01-02T14:03:24.392Z,12.72
2023-01-02T14:06:01.053Z,12.71
2023-01-02T14:08:28.895Z,12.62
2023-01-02T14:11:01.583Z,12.58
2023-01-02T14:13:35.773Z,12.40
2023-01-02T14:16:20.743Z,12.42
2023-01-02T14:19:06.910Z,12.37
2023-01-02T14:22:02.009Z,12.31
2023-01-02T14:24:42.219Z,12.28
2023-01-02T14:27:14.667Z,12.26
2023-01-02T14:30:00.729Z,12.20
2023-01-02T14:32:41.025Z,12.12
2023-01-02T14:35:24.824Z,12.03
2023-01-02T14:37:56.451Z,12.08
2023-01-02T14:40:22.766Z,12.06
2023-01-02T14:43:26.147Z,12.03
2023-01-02T14:46:18.876Z,12.00
2023-01-02T14:48:58.470Z,11.95
2023-01-02T14:51:36.897Z,11.87
2023-01-02T14:54:11.843Z,11.96
2023-01-02T14:56:41.484Z,11.86
2023-01-02T14:59:19.695Z,11.84
2023-01-02T15:01:56.137Z,11.95
2023-01-02T15:04:39.019Z,11.84
2023-01-02T15:07:26.756Z,11.81
2023-01-02T15:10:02.313Z,11.83
2023-01-02T15:12:49.995Z,11.83
2023-01-02T15:15:24.518Z,11.81
2023-01-02T15:17:52.321Z,11.86
2023-01-02T15:20:25.188Z,11.76
2023-01-02T15:22:53.003Z,11.81
2023-01-02T15:25:41.437Z,11.83
2023-01-02T15:28:23.324Z,11.84
2023-01-02T15:31:03.297Z,11.82
2023-01-02T15:33:31.444Z,11.81
2023-01-02T15:36:11.272Z,11.76
2023-01-02T15:38:37.709Z,11.86
2023-01-02T15:41:04.629Z,11.86
2023-01-02T15:43:53.009Z,11.88
2023-01-02T15:46:20.990Z,11.87
2023-01-02T15:48:49.063Z,11.92
2023-01-02T15:51:17.579Z,11.80
2023-01-02T15:53:44.589Z,11.59
2023-01-02T15:56:31.431Z,11.33
2023-01-02T15:58:58.106Z,11.00
2023-01-02T16:01:24.988Z,11.13
2023-01-02T16:04:02.971Z,11.21
2023-01-02T16:06:42.914Z,11.11
2023-01-02T16:09:20.266Z,11.07
2023-01-02T16:11:50.363Z,11.17
2023-01-02T16:14:30.438Z,11.00
2023-01-02T16:17:04.950Z,10.98
2023-01-02T16:19:43.833Z,10.84
2023-01-02T16:22:10.140Z,10.83
2023-01-02T16:24:45.995Z,10.76
2023-01-02T16:27:15.568Z,10.70
2023-01-02T16:29:43.710Z,10.67
2023-01-02T16:32:25.370Z,10.44
2023-01-02T16:35:22.557Z,10.41
2023-01-02T16:37:54.959Z,10.24
2023-01-02T16:41:01.222Z,9.97
2023-01-02T16:43:13.755Z,9.94
2023-01-02T16:45:40.728Z,9.93
2023-01-02T16:48:11.722Z,9.90
2023-01-02T16:50:46.008Z,9.85
2023-01-02T16:53:18.919Z,9.79
2023-01-02T16:55:45.607Z,9.72
2023-01-02T16:58:12.066Z,9.68
2023-01-02T17:00:43.400Z,9.67
2023-01-02T17:03:19.237Z,9.63
2023-01-02T17:06:01.268Z,9.70
2023-01-02T17:08:31.309Z,9.58
2023-01-02T17:10:58.933Z,9.63
2023-01-02T17:13:26.578Z,9.66
2023-01-02T17:15:53.256Z,9.60
2023-01-02T17:18:20.000Z,9.66
2023-01-02T17:20:48.270Z,9.62
2023-01-02T17:23:14.674Z,9.59
2023-01-02T17:25:43.695Z,9.67
2023-01-02T17:28:10.918Z,9.63
2023-01-02T17:30:37.294Z,9.73
2023-01-02T17:33:04.350Z,9.77
2023-01-02T17:35:30.951Z,9.63
2023-01-02T17:37:57.317Z,9.53
2023-01-02T17:40:23.740Z,9.67
2023-01-02T17:42:50.220Z,9.66
2023-01-02T17:45:16.735Z,9.61
2023-01-02T17:48:02.127Z,9.67
2023-01-02T17:50:31.944Z,9.67
2023-01-02T17:52:58.393Z,9.69
2023-01-02T17:55:24.779Z,9.72
2023-01-02T17:57:51.167Z,9.65
2023-01-02T18:00:18.281Z,9.72
2023-01-02T18:02:46.533Z,9.65
2023-01-02T18:05:13.049Z,9.77
2023-01-02T18:07:39.484Z,9.76
2023-01-02T18:10:08.277Z,9.68
2023-01-02T18:12:37.743Z,9.68
2023-01-02T18:15:11.703Z,9.65
2023-01-02T18:17:38.138Z,9.68
2023-01-02T18:20:12.871Z,9.64
2023-01-02T18:22:46.055Z,9.64
2023-01-02T18:25:24.828Z,9.60
2023-01-02T18:27:52.980Z,9.60
2023-01-02T18:30:25.005Z,9.56
2023-01-02T18:33:16.771Z,9.51
2023-01-02T18:35:59.770Z,9.52
2023-01-02T18:38:36.468Z,9.55
2023-01-02T18:41:21.437Z,9.58
2023-01-02T18:43:49.842Z,9.60
2023-01-02T18:46:22.224Z,9.64
2023-01-02T18:48:48.855Z,9.66
2023-01-02T18:51:24.109Z,9.71
2023-01-02T18:53:55.338Z,9.69
2023-01-02T18:56:27.321Z,9.75
2023-01-02T18:59:16.061Z,9.74
2023-01-02T19:01:50.282Z,9.72
2023-01-02T19:04:30.120Z,9.61
2023-01-02T19:06:59.580Z,9.59
2023-01-02T19:09:31.485Z,9.51
2023-01-02T19:12:21.138Z,9.51
2023-01-02T19:14:48.969Z,9.52
2023-01-02T19:17:32.609Z,9.44
2023-01-02T19:20:00.065Z,9.47
2023-01-02T19:22:33.310Z,9.46
2023-01-02T19:25:08.864Z,9.48
2023-01-02T19:27:39.283Z,9.43
2023-01-02T19:30:25.128Z,9.48
2023-01-02T19:32:51.569Z,9.41
2023-01-02T19:35:38.800Z,9.40
2023-01-02T19:38:23.981Z,9.36
2023-01-02T19:40:50.381Z,9.34
2023-01-02T19:43:18.202Z,9.37
2023-01-02T19:45:44.612Z,9.33
2023-01-02T19:48:16.287Z,9.29
2023-01-02T19:50:44.345Z,9.33
2023-01-02T19:53:10.755Z,9.31
2023-01-02T19:55:37.164Z,9.33
2023-01-02T19:58:04.512Z,9.28
2023-01-02T20:00:31.022Z,9.32
2023-01-02T20:02:57.759Z,9.27
2023-01-02T20:05:24.694Z,9.27
2023-01-02T20:07:52.471Z,9.21
2023-01-02T20:10:19.040Z,9.18
2023-01-02T20:12:45.751Z,9.05
2023-01-02T20:15:17.450Z,9.18
2023-01-02T20:17:44.899Z,9.15
2023-01-02T20:20:14.872Z,9.18
2023-01-02T20:22:43.587Z,9.13
2023-01-02T20:25:12.124Z,9.17
2023-01-02T20:27:39.123Z,9.10
2023-01-02T20:30:10.161Z,9.10
2023-01-02T20:32:36.554Z,9.11
2023-01-02T20:35:04.765Z,9.05
2023-01-02T20:37:31.188Z,9.06
2023-01-02T20:39:57.884Z,9.02
2023-01-02T20:42:24.272Z,8.97
2023-01-02T20:44:51.568Z,8.99
2023-01-02T20:47:18.057Z,9.02
2023-01-02T20:49:44.727Z,8.95
2023-01-02T20:52:11.228Z,8.92
2023-01-02T20:54:38.506Z,8.92
2023-01-02T20:57:04.956Z,8.91
2023-01-02T20:59:31.850Z,8.88
2023-01-02T21:01:58.493Z,8.86
2023-01-02T21:04:32.492Z,8.80
2023-01-02T21:07:02.905Z,8.77
2023-01-02T21:09:29.834Z,8.79
2023-01-02T21:11:56.287Z,8.80
2023-01-02T21:14:22.752Z,8.77
2023-01-02T21:16:49.145Z,8.67
2023-01-02T21:19:15.582Z,8.70
2023-01-02T21:21:42.344Z,8.79
2023-01-02T21:24:08.801Z,8.74
2023-01-02T21:26:35.205Z,8.79
2023-01-02T21:29:03.136Z,8.80
2023-01-02T21:31:29.864Z,8.80
2023-01-02T21:33:56.518Z,8.85
2023-01-02T21:36:24.956Z,8.92
2023-01-02T21:38:51.463Z,8.86
2023-01-02T21:41:36.237Z,8.82
2023-01-02T21:44:02.659Z,8.83
2023-01-02T21:46:29.101Z,8.81
2023-01-02T21:48:55.641Z,8.82
2023-01-02T21:51:30.638Z,8.81
2023-01-02T21:53:59.405Z,8.85
2023-01-02T21:56:25.811Z,8.79
2023-01-02T21:58:52.275Z,8.84
2023-01-02T22:01:18.831Z,8.81
2023-01-02T22:03:45.415Z,8.84
2023-01-02T22:06:11.869Z,8.80
2023-01-02T22:08:38.274Z,8.84
2023-01-02T22:11:23.795Z,8.86
2023-01-02T22:13:50.180Z,8.82
2023-01-02T22:16:16.638Z,8.83
2023-01-02T22:18:43.162Z,8.79
2023-01-02T22:21:09.525Z,8.76
2023-01-02T22:23:35.909Z,8.71
2023-01-02T22:26:02.278Z,8.73
2023-01-02T22:28:28.699Z,8.76
2023-01-02T22:30:56.423Z,8.77
2023-01-02T22:33:22.845Z,8.79
2023-01-02T22:35:49.458Z,8.62
2023-01-02T22:38:15.861Z,8.61
2023-01-02T22:40:42.296Z,8.57
2023-01-02T22:43:12.570Z,8.43
2023-01-02T22:45:48.811Z,8.42
2023-01-02T22:48:23.966Z,8.45
2023-01-02T22:50:54.659Z,8.34
2023-01-02T22:53:30.401Z,8.36
2023-01-02T22:55:57.419Z,8.33
2023-01-02T22:58:24.853Z,8.37
2023-01-02T23:01:00.103Z,8.32
2023-01-02T23:03:36.246Z,8.31
2023-01-02T23:06:02.643Z,8.32
2023-01-02T23:08:29.231Z,8.34
2023-01-02T23:10:55.769Z,8.32
2023-01-02T23:13:22.170Z,8.36
2023-01-02T23:16:07.221Z,8.35
2023-01-02T23:19:06.355Z,8.31
2023-01-02T23:21:37.722Z,8.32
2023-01-02T23:24:05.608Z,8.35
2023-01-02T23:26:52.895Z,8.32
2023-01-02T23:29:20.777Z,8.37
2023-01-02T23:31:49.087Z,8.30
2023-01-02T23:34:18.364Z,8.27
2023-01-02T23:36:45.279Z,8.28
2023-01-02T23:39:14.375Z,8.18
2023-01-02T23:41:42.221Z,8.15
2023-01-02T23:44:09.616Z,8.16
2023-01-02T23:46:36.677Z,8.19
2023-01-02T23:49:03.914Z,8.20
2023-01-02T23:51:30.953Z,8.21
2023-01-02T23:53:57.793Z,8.11
2023-01-02T23:56:30.569Z,8.17
2023-01-02T23:58:58.771Z,8.17
